Terminal Aerodrome Forecast
Issued by NWS

Home | Current Version | Previous Version | Text Only | Print | Product List | Glossary On
Versions: 1 2 3 4 5 6 7 8 9 10 11 12 13 14 15 16
727
FTUS43 KILX 271138
TAFBMI
TAF
KBMI 271138Z 2712/2812 21005KT 6SM BR BKN035
     FM271500 18010KT P6SM SCT030 BKN070
     FM280000 15013KT P6SM BKN040
     FM280500 16014G21KT 4SM -SHRA BR VCTS SCT006 OVC015CB=

USA.gov is the U.S. government's official web portal to all federal, state and local government web resources and services.